Atlanta, Georgia
Traffic Map
Current Weather Conditions
Atlanta, Georgia
Overcast
Overcast
17°
Feels Like: 17°
Wind Chill: 17° Ceiling: 2400
Heat Index: 17° Visibility: 10mi
Dew Point: 16° Wind: 6mph
Humidity: 90% Direction: 330° (NNW)
Pressure: 29.97in Gusts: 0mph
Raw Report DataKATL 280852Z 33005KT 10SM BKN024 OVC070 17/16 A2997 RMK AO2 RAB27E40 SLP140 SHRA W-N P0000 60000 T01720156 53001
Traffic Incident Summary
Active as of:
Severity:
Category:
InformationThere was an issue retrieving the traffic information for this location. Please try a different location or try again shortly.
Advertisements
Track Severe Weather on mobile